Main page
METAR-TAF:

METAR-TAF

Airports :

Comanche County–City Airport

Comanche, Texas, United States

latitude: 31-55N, longitude: 098-36-01W, elevation: 1387 ft

Current weather observation

The report was made 31 minutes ago, at 20:56 UTC
Wind 7 mph from the Southwest
Temperature 81°F
Humidity 39%
Pressure 29.75 in. Hg
Visibility: 10 miles
Clear sky

METAR: KMKN 172056Z AUTO 22006KT 10SM CLR 27/12 A2975 RMK AO2

Time: 15:27 (21:27 UTC)


TAF: missing

Weather observations and forecasts of more than 4000 airports (METAR and TAF reports).

The available stations are represented by yellow and red dots on the map.

Hover mouse over dot to see the name of the station.

Then click to see weather observations and forecasts.

To change the map : click on the green buttons with a black cross to zoom in, on the green button with a dash to zoom out, or on the green arrows for adjacent maps.


METAR-TAF: